Time;durP1;ratioP1;P1;durP2;ratioP2;P2;SDS_P1;SDS_P2;PMS_P1;PMS_P2;Temp;Humidity;BMP_temperature;BMP_pressure;BME280_temperature;BME280_humidity;BME280_pressure;Samples;Min_cycle;Max_cycle;Signal;HPM_P1;HPM_P2
2023/05/25 00:00:32;;;;;;;33.30;12.80;;;10.40;81.30;;;;;;5078489;28;20414;-74
2023/05/25 00:02:58;;;;;;;24.90;12.60;;;10.20;83.50;;;;;;5077860;28;20395;-75
2023/05/25 00:05:26;;;;;;;26.33;12.88;;;10.00;88.20;;;;;;5077892;28;20394;-72
2023/05/25 00:07:52;;;;;;;22.40;11.75;;;9.90;88.50;;;;;;5077278;28;20429;-73
2023/05/25 00:10:18;;;;;;;29.40;13.55;;;9.80;90.30;;;;;;5076931;28;20384;-71
2023/05/25 00:12:44;;;;;;;21.02;12.73;;;9.80;90.10;;;;;;5077804;28;20411;-73
2023/05/25 00:15:10;;;;;;;29.65;13.60;;;9.70;90.60;;;;;;5078232;28;20383;-74
2023/05/25 00:17:36;;;;;;;27.58;12.88;;;9.50;92.30;;;;;;5078129;28;20730;-72
2023/05/25 00:20:08;;;;;;;26.80;12.30;;;9.50;94.50;;;;;;5075968;28;20430;-72
2023/05/25 00:22:37;;;;;;;28.15;12.98;;;9.40;95.00;;;;;;5077069;28;20786;-72
2023/05/25 00:25:04;;;;;;;26.02;12.30;;;9.30;96.90;;;;;;5078344;28;20383;-73
2023/05/25 00:27:30;;;;;;;24.05;13.07;;;9.40;97.30;;;;;;5078194;28;20388;-72
2023/05/25 00:29:56;;;;;;;27.45;13.25;;;9.40;95.90;;;;;;5077837;28;20398;-75
2023/05/25 00:32:21;;;;;;;27.25;13.75;;;9.30;96.60;;;;;;5076830;28;20748;-73
2023/05/25 00:34:47;;;;;;;31.10;13.40;;;9.20;98.00;;;;;;5077662;28;20380;-71
2023/05/25 00:37:12;;;;;;;28.93;12.43;;;9.30;99.50;;;;;;5077210;28;20519;-73
2023/05/25 00:39:38;;;;;;;25.58;12.40;;;9.40;97.40;;;;;;5076344;28;20386;-73
2023/05/25 00:42:06;;;;;;;25.03;12.13;;;9.60;94.60;;;;;;5075926;28;20465;-73
2023/05/25 00:44:31;;;;;;;23.25;12.10;;;9.70;90.70;;;;;;5075399;28;20423;-73
2023/05/25 00:46:58;;;;;;;28.67;12.73;;;9.80;89.70;;;;;;5075955;28;20384;-72
2023/05/25 00:49:24;;;;;;;25.25;12.70;;;9.80;88.70;;;;;;5076195;28;20737;-72
2023/05/25 00:51:51;;;;;;;28.58;12.90;;;9.50;90.70;;;;;;5074429;28;20449;-74
2023/05/25 00:54:18;;;;;;;32.90;13.20;;;9.20;94.60;;;;;;5075073;28;20426;-73
2023/05/25 00:56:48;;;;;;;27.25;13.40;;;9.40;95.30;;;;;;5074228;28;20383;-71
2023/05/25 00:59:18;;;;;;;31.85;12.00;;;9.30;95.50;;;;;;5074822;28;20392;-71
2023/05/25 01:01:45;;;;;;;29.75;12.80;;;9.30;97.50;;;;;;5075001;28;20842;-72
2023/05/25 01:04:14;;;;;;;29.20;12.20;;;9.40;96.60;;;;;;5074394;28;20459;-71
2023/05/25 01:06:44;;;;;;;31.45;12.60;;;9.70;92.60;;;;;;5073728;28;20479;-72
2023/05/25 01:09:14;;;;;;;30.65;11.55;;;9.80;87.80;;;;;;5074438;28;20834;-72
2023/05/25 01:11:43;;;;;;;31.60;12.30;;;9.80;88.40;;;;;;5075178;28;20391;-72
2023/05/25 01:14:09;;;;;;;27.70;12.50;;;9.50;90.10;;;;;;5076440;28;20392;-72
2023/05/25 01:16:36;;;;;;;29.23;14.00;;;9.50;92.20;;;;;;5081134;28;20466;-73
2023/05/25 01:19:02;;;;;;;24.30;12.98;;;9.20;93.70;;;;;;5078522;28;20557;-73
2023/05/25 01:21:44;;;;;;;30.50;13.70;;;9.00;97.40;;;;;;5075812;28;20408;-72
2023/05/25 01:24:21;;;;;;;33.95;13.35;;;8.90;98.70;;;;;;5076003;28;20470;-73
2023/05/25 01:26:53;;;;;;;33.28;13.27;;;8.90;99.90;;;;;;5075142;28;20379;-72
2023/05/25 01:29:20;;;;;;;31.73;13.00;;;8.90;99.90;;;;;;5078298;28;20371;-72
2023/05/25 01:31:46;;;;;;;22.95;12.70;;;9.00;99.90;;;;;;5079016;28;20455;-74
2023/05/25 01:34:13;;;;;;;33.97;12.15;;;9.20;98.30;;;;;;5077248;28;20387;-73
2023/05/25 01:36:39;;;;;;;28.08;12.50;;;9.40;94.40;;;;;;5078423;28;20451;-72
2023/05/25 01:39:06;;;;;;;28.10;12.53;;;9.30;94.40;;;;;;5084498;28;20388;-73
2023/05/25 01:41:31;;;;;;;26.80;12.73;;;9.30;92.50;;;;;;5087252;28;20435;-72
2023/05/25 01:43:57;;;;;;;25.42;13.10;;;9.00;94.50;;;;;;5085606;28;20384;-73
2023/05/25 01:46:39;;;;;;;25.30;12.18;;;8.90;96.70;;;;;;5083990;28;20384;-71
2023/05/25 01:49:05;;;;;;;23.92;13.00;;;8.80;99.80;;;;;;5084131;28;20881;-74
2023/05/25 01:51:41;;;;;;;29.43;12.70;;;8.70;99.90;;;;;;5083732;28;20387;-74
2023/05/25 01:54:18;;;;;;;31.98;13.60;;;8.70;99.90;;;;;;5079807;28;20748;-73
2023/05/25 01:56:47;;;;;;;26.60;12.70;;;8.70;99.90;;;;;;5072932;28;20908;-73
2023/05/25 01:59:15;;;;;;;27.88;13.02;;;8.70;99.90;;;;;;5075723;28;20395;-73
2023/05/25 02:01:42;;;;;;;28.08;12.82;;;8.80;99.80;;;;;;5076896;28;20396;-73
2023/05/25 02:04:08;;;;;;;29.93;12.93;;;8.80;99.90;;;;;;5073819;28;20763;-72
2023/05/25 02:06:37;;;;;;;32.67;13.13;;;8.60;99.90;;;;;;5072081;28;20451;-73
2023/05/25 02:09:03;;;;;;;26.73;12.13;;;8.50;99.90;;;;;;5075449;28;20402;-72
2023/05/25 02:11:28;;;;;;;29.88;12.57;;;8.50;99.90;;;;;;5077153;28;20383;-73
2023/05/25 02:13:54;;;;;;;32.30;13.23;;;8.60;99.90;;;;;;5078689;28;20458;-73
2023/05/25 02:16:20;;;;;;;26.10;13.17;;;8.90;99.30;;;;;;5078715;28;20388;-72
2023/05/25 02:18:45;;;;;;;28.37;12.33;;;9.00;96.20;;;;;;5082396;28;20387;-72
2023/05/25 02:21:11;;;;;;;25.27;13.13;;;9.20;93.10;;;;;;5078978;28;20938;-74
2023/05/25 02:23:37;;;;;;;26.75;12.60;;;9.20;93.10;;;;;;5078219;28;20418;-74
2023/05/25 02:26:02;;;;;;;30.23;12.55;;;9.20;92.00;;;;;;5077642;28;20391;-73
2023/05/25 02:28:28;;;;;;;28.27;12.18;;;9.20;93.70;;;;;;5077421;28;20383;-72
2023/05/25 02:30:53;;;;;;;25.77;12.30;;;9.20;93.10;;;;;;5075715;28;20421;-74
2023/05/25 02:33:19;;;;;;;28.77;12.60;;;9.10;93.20;;;;;;5076228;28;20429;-75
2023/05/25 02:35:45;;;;;;;29.77;13.10;;;9.10;94.40;;;;;;5075730;28;20887;-72
2023/05/25 02:38:10;;;;;;;27.40;12.50;;;9.30;93.80;;;;;;5073379;28;20959;-73
2023/05/25 02:40:36;;;;;;;30.37;12.57;;;9.40;92.50;;;;;;5074229;28;20391;-73
2023/05/25 02:43:01;;;;;;;29.97;12.77;;;9.40;92.20;;;;;;5074454;28;20384;-75
2023/05/25 02:45:27;;;;;;;28.40;12.40;;;9.40;91.20;;;;;;5074315;28;20379;-74
2023/05/25 02:47:52;;;;;;;27.67;13.40;;;9.40;91.60;;;;;;5074200;28;20782;-73
2023/05/25 02:50:18;;;;;;;24.70;14.10;;;9.30;93.50;;;;;;5074175;28;20380;-73
2023/05/25 02:52:43;;;;;;;27.55;14.05;;;9.20;94.20;;;;;;5074135;28;20450;-73
2023/05/25 02:55:12;;;;;;;34.20;14.13;;;9.10;97.00;;;;;;5074100;28;20382;-73
2023/05/25 02:57:37;;;;;;;29.20;14.85;;;9.20;97.20;;;;;;5074288;28;20462;-73
2023/05/25 03:00:05;;;;;;;31.37;15.00;;;9.20;96.00;;;;;;5073913;28;20476;-73
2023/05/25 03:02:31;;;;;;;29.95;14.32;;;9.20;95.70;;;;;;5073897;28;20477;-72
2023/05/25 03:04:57;;;;;;;26.65;14.60;;;9.30;96.00;;;;;;5074813;28;20466;-73
2023/05/25 03:07:25;;;;;;;32.67;14.75;;;9.20;96.30;;;;;;5074637;28;20375;-73
2023/05/25 03:09:51;;;;;;;35.50;16.10;;;9.20;96.90;;;;;;5073646;28;20467;-71
2023/05/25 03:12:16;;;;;;;31.70;14.85;;;9.20;97.30;;;;;;5073424;28;20486;-72
2023/05/25 03:14:42;;;;;;;37.50;15.95;;;9.20;97.30;;;;;;5073354;28;20907;-73
2023/05/25 03:17:07;;;;;;;34.47;16.20;;;9.10;97.70;;;;;;5073701;28;20383;-75
2023/05/25 03:19:33;;;;;;;34.92;16.50;;;9.10;99.90;;;;;;5072971;28;20395;-73
2023/05/25 03:21:59;;;;;;;37.67;15.77;;;9.20;99.10;;;;;;5073617;28;20418;-74
2023/05/25 03:24:25;;;;;;;36.65;17.60;;;9.10;98.20;;;;;;5076049;22;20511;-75
2023/05/25 03:26:51;;;;;;;38.75;17.45;;;8.90;99.20;;;;;;5053148;28;20953;-74
2023/05/25 03:29:16;;;;;;;33.00;16.83;;;8.60;99.90;;;;;;5053107;28;20469;-74
2023/05/25 03:31:42;;;;;;;40.05;17.48;;;8.60;99.90;;;;;;5052679;28;20870;-74
2023/05/25 03:34:08;;;;;;;29.90;17.05;;;8.70;99.90;;;;;;5052921;28;20409;-74
2023/05/25 03:36:33;;;;;;;29.90;16.40;;;8.70;99.90;;;;;;5053209;28;20374;-75
2023/05/25 03:38:59;;;;;;;34.28;17.00;;;8.80;99.90;;;;;;5053194;28;20805;-74
2023/05/25 03:41:25;;;;;;;34.08;15.63;;;8.90;99.90;;;;;;5052618;28;20800;-75
2023/05/25 03:43:51;;;;;;;35.53;16.58;;;8.90;99.90;;;;;;5053083;28;20388;-74
2023/05/25 03:46:16;;;;;;;39.17;16.30;;;8.80;99.90;;;;;;5052734;28;20381;-74
2023/05/25 03:48:42;;;;;;;30.97;16.50;;;8.90;99.90;;;;;;5052541;28;20394;-73
2023/05/25 03:51:07;;;;;;;35.27;16.70;;;9.00;98.70;;;;;;5052486;28;20393;-74
2023/05/25 03:53:33;;;;;;;39.57;16.50;;;8.90;97.60;;;;;;5052434;28;20392;-73
2023/05/25 03:55:59;;;;;;;35.23;16.00;;;8.80;99.90;;;;;;5051207;28;20446;-74
2023/05/25 03:58:25;;;;;;;40.77;16.37;;;9.00;99.60;;;;;;5052382;28;20974;-74
2023/05/25 04:00:51;;;;;;;32.97;15.73;;;9.10;99.00;;;;;;5052336;28;20414;-74
2023/05/25 04:03:17;;;;;;;34.78;15.85;;;9.20;98.40;;;;;;5052372;28;20416;-74
2023/05/25 04:05:44;;;;;;;33.63;16.00;;;9.30;96.50;;;;;;5052749;28;20370;-73
2023/05/25 04:08:16;;;;;;;38.40;16.17;;;9.20;97.40;;;;;;5052166;28;20382;-73
2023/05/25 04:10:43;;;;;;;38.63;17.50;;;9.20;97.00;;;;;;5052209;28;20473;-74
2023/05/25 04:13:09;;;;;;;35.97;17.08;;;9.20;98.20;;;;;;5050606;28;20394;-74
2023/05/25 04:15:35;;;;;;;30.70;15.83;;;9.30;98.40;;;;;;5052093;28;20873;-74
2023/05/25 04:18:01;;;;;;;32.90;16.87;;;9.20;97.30;;;;;;5052084;28;20382;-74
2023/05/25 04:20:28;;;;;;;35.45;17.05;;;9.30;99.90;;;;;;5052053;28;20955;-74
2023/05/25 04:22:54;;;;;;;38.65;16.50;;;9.50;96.60;;;;;;5051536;28;20436;-74
2023/05/25 04:25:20;;;;;;;31.48;16.25;;;9.60;95.30;;;;;;5050663;28;20389;-74
2023/05/25 04:27:46;;;;;;;34.42;15.32;;;9.70;94.70;;;;;;5051993;28;20409;-74
2023/05/25 04:30:12;;;;;;;31.40;15.90;;;9.80;93.40;;;;;;5051861;28;20738;-73
2023/05/25 04:32:39;;;;;;;32.88;15.88;;;9.90;93.20;;;;;;5050855;28;20889;-75
2023/05/25 04:35:05;;;;;;;34.45;16.00;;;9.90;93.10;;;;;;5052031;28;20568;-74
2023/05/25 04:37:32;;;;;;;35.22;16.70;;;9.90;92.00;;;;;;5051666;28;20473;-75
2023/05/25 04:39:58;;;;;;;35.83;16.95;;;9.80;91.50;;;;;;5051915;28;20385;-75
2023/05/25 04:42:23;;;;;;;35.00;16.98;;;9.90;92.30;;;;;;5051750;28;20399;-74
2023/05/25 04:44:54;;;;;;;33.22;16.63;;;10.00;89.60;;;;;;5056029;28;20413;-75
2023/05/25 04:47:20;;;;;;;33.45;15.98;;;10.00;89.10;;;;;;5053109;28;20476;-74
2023/05/25 04:49:46;;;;;;;30.10;15.77;;;10.10;89.10;;;;;;5051712;28;20377;-74
2023/05/25 04:52:11;;;;;;;31.97;16.97;;;10.10;89.40;;;;;;5052512;28;20892;-74
2023/05/25 04:54:37;;;;;;;32.22;15.93;;;10.20;89.60;;;;;;5052547;28;20389;-73
2023/05/25 04:57:03;;;;;;;28.50;16.03;;;10.30;89.30;;;;;;5056701;28;20797;-74
2023/05/25 04:59:28;;;;;;;32.47;15.30;;;10.40;90.10;;;;;;5055382;28;20420;-74
2023/05/25 05:01:54;;;;;;;37.97;16.20;;;10.40;90.10;;;;;;5051601;28;20405;-75
2023/05/25 05:04:19;;;;;;;30.67;16.10;;;10.50;88.50;;;;;;5051142;28;20901;-74
2023/05/25 05:06:46;;;;;;;32.10;16.80;;;10.60;88.00;;;;;;5051052;28;20385;-74
2023/05/25 05:09:12;;;;;;;33.35;17.08;;;10.60;87.70;;;;;;5051058;28;21098;-75
2023/05/25 05:11:37;;;;;;;33.47;16.10;;;10.60;88.80;;;;;;5051350;28;20444;-75
2023/05/25 05:14:03;;;;;;;26.97;16.20;;;10.80;87.50;;;;;;5051990;28;20382;-74
2023/05/25 05:16:32;;;;;;;31.00;16.38;;;10.90;85.80;;;;;;5051207;28;20386;-74
2023/05/25 05:18:58;;;;;;;34.42;16.60;;;10.90;84.90;;;;;;5051294;28;20417;-74
2023/05/25 05:21:24;;;;;;;32.67;16.38;;;11.00;85.30;;;;;;5050786;28;20433;-75
2023/05/25 05:23:50;;;;;;;31.55;18.02;;;11.10;84.30;;;;;;5050732;28;20458;-74
2023/05/25 05:26:16;;;;;;;35.10;17.15;;;11.20;82.40;;;;;;5051047;28;20386;-75
2023/05/25 05:28:41;;;;;;;30.65;17.10;;;11.20;82.40;;;;;;5051113;28;20413;-73
2023/05/25 05:31:07;;;;;;;33.10;16.85;;;11.30;82.00;;;;;;5049328;28;20480;-74
2023/05/25 05:33:32;;;;;;;30.77;16.23;;;11.40;81.10;;;;;;5050586;28;20416;-74
2023/05/25 05:35:58;;;;;;;34.55;17.77;;;11.50;80.90;;;;;;5050859;28;20479;-73
2023/05/25 05:38:24;;;;;;;33.50;16.63;;;11.50;82.30;;;;;;5049312;28;20415;-74
2023/05/25 05:40:50;;;;;;;38.73;16.60;;;11.50;81.80;;;;;;5050583;28;20798;-75
2023/05/25 05:43:15;;;;;;;33.27;15.90;;;11.60;80.70;;;;;;5050377;28;20377;-74
2023/05/25 05:45:41;;;;;;;29.30;15.73;;;11.70;80.90;;;;;;5050641;28;20384;-74
2023/05/25 05:48:09;;;;;;;29.60;15.90;;;11.80;78.80;;;;;;5049189;28;20431;-75
2023/05/25 05:50:36;;;;;;;31.80;17.15;;;11.70;79.10;;;;;;5050633;28;20410;-75
2023/05/25 05:53:02;;;;;;;33.95;16.13;;;11.80;79.90;;;;;;5049421;28;20389;-75
2023/05/25 05:55:28;;;;;;;32.07;16.40;;;11.90;78.70;;;;;;5050572;28;20384;-75
2023/05/25 05:57:53;;;;;;;32.70;16.67;;;11.90;78.20;;;;;;5050888;28;20421;-75
2023/05/25 06:00:20;;;;;;;31.93;16.63;;;12.00;78.50;;;;;;5049334;28;20866;-76
2023/05/25 06:02:45;;;;;;;33.42;16.67;;;12.10;77.40;;;;;;5049068;28;20413;-75
2023/05/25 06:05:11;;;;;;;31.70;16.20;;;12.20;77.60;;;;;;5050912;28;20381;-75
2023/05/25 06:07:37;;;;;;;29.13;15.87;;;12.30;75.00;;;;;;5050826;28;20499;-75
2023/05/25 06:10:04;;;;;;;31.27;15.38;;;12.30;74.50;;;;;;5050732;28;20385;-74
2023/05/25 06:12:29;;;;;;;32.70;16.48;;;12.30;75.50;;;;;;5050701;28;20416;-74
2023/05/25 06:14:55;;;;;;;35.57;16.23;;;12.30;74.10;;;;;;5051007;28;20382;-75
2023/05/25 06:17:22;;;;;;;32.07;15.70;;;12.30;73.90;;;;;;5050653;28;20393;-75
2023/05/25 06:19:48;;;;;;;36.22;16.02;;;12.30;73.90;;;;;;5050849;28;20432;-75
2023/05/25 06:22:14;;;;;;;27.00;15.18;;;12.40;73.70;;;;;;5050204;28;20437;-75
2023/05/25 06:24:40;;;;;;;31.02;15.35;;;12.50;71.20;;;;;;5052493;28;20511;-76
2023/05/25 06:27:06;;;;;;;32.65;15.45;;;12.70;72.50;;;;;;5050523;28;20903;-74
2023/05/25 06:29:31;;;;;;;29.90;15.25;;;12.80;68.60;;;;;;5050294;28;20791;-75
2023/05/25 06:31:57;;;;;;;33.70;14.95;;;13.00;66.30;;;;;;5050126;28;20790;-75
2023/05/25 06:34:22;;;;;;;29.50;14.80;;;13.00;65.10;;;;;;5050123;28;20409;-75
2023/05/25 06:36:48;;;;;;;30.50;13.93;;;13.10;62.30;;;;;;5050343;28;20391;-76
2023/05/25 06:39:14;;;;;;;28.70;14.10;;;13.10;61.40;;;;;;5051053;28;20543;-75
2023/05/25 06:41:39;;;;;;;32.50;14.30;;;13.10;63.50;;;;;;5050367;28;20437;-75
2023/05/25 06:44:08;;;;;;;30.37;13.93;;;13.30;61.70;;;;;;5050473;28;20749;-75
2023/05/25 06:46:34;;;;;;;26.92;14.68;;;13.40;61.40;;;;;;5051147;28;20404;-75
2023/05/25 06:49:00;;;;;;;28.30;14.35;;;13.50;61.30;;;;;;5050789;28;20872;-76
2023/05/25 06:51:26;;;;;;;29.50;14.13;;;13.60;61.10;;;;;;5049865;28;20402;-75
2023/05/25 06:53:54;;;;;;;26.92;13.70;;;13.70;58.80;;;;;;5048977;28;20766;-75
2023/05/25 06:56:20;;;;;;;31.35;14.07;;;13.80;58.30;;;;;;5054504;28;20388;-74
2023/05/25 06:58:45;;;;;;;33.83;14.18;;;13.90;57.90;;;;;;5057228;28;20389;-75
2023/05/25 07:01:11;;;;;;;35.00;14.90;;;14.00;55.70;;;;;;5053663;28;20492;-74
2023/05/25 07:03:37;;;;;;;29.30;14.15;;;14.00;54.60;;;;;;5054463;28;20419;-75
2023/05/25 07:06:03;;;;;;;29.80;14.55;;;14.10;54.80;;;;;;5053582;28;20427;-75
2023/05/25 07:08:29;;;;;;;28.80;14.05;;;14.10;55.40;;;;;;5053434;28;20548;-75
2023/05/25 07:10:54;;;;;;;26.33;13.95;;;14.10;56.60;;;;;;5053549;28;20552;-74
2023/05/25 07:13:20;;;;;;;27.40;14.00;;;14.30;53.50;;;;;;5053565;28;20381;-75
2023/05/25 07:15:46;;;;;;;27.20;14.73;;;14.30;54.40;;;;;;5054448;28;20389;-75
2023/05/25 07:18:11;;;;;;;28.27;13.67;;;14.40;52.80;;;;;;5057317;28;20881;-75
2023/05/25 07:20:40;;;;;;;35.03;15.13;;;14.50;52.80;;;;;;5056310;28;20888;-76
2023/05/25 07:23:07;;;;;;;29.85;14.80;;;14.60;52.30;;;;;;5055827;28;20399;-75
2023/05/25 07:25:33;;;;;;;24.20;14.02;;;14.60;49.60;;;;;;5059497;28;20381;-74
2023/05/25 07:27:58;;;;;;;40.97;15.53;;;14.70;49.30;;;;;;5057047;28;20469;-75
2023/05/25 07:30:24;;;;;;;34.13;15.33;;;14.80;48.40;;;;;;5053663;28;20386;-75
2023/05/25 07:32:49;;;;;;;28.95;14.80;;;14.80;48.60;;;;;;5053643;28;20385;-75
2023/05/25 07:35:15;;;;;;;29.95;15.13;;;14.80;47.70;;;;;;5054785;28;20451;-76
2023/05/25 07:37:40;;;;;;;27.93;14.80;;;14.70;46.90;;;;;;5053732;28;20408;-76
2023/05/25 07:40:06;;;;;;;26.80;14.30;;;14.70;48.00;;;;;;5056245;28;20439;-74
2023/05/25 07:42:35;;;;;;;34.00;14.90;;;14.80;46.10;;;;;;5064910;28;20478;-75
2023/05/25 07:45:01;;;;;;;32.03;14.27;;;14.80;45.70;;;;;;5063613;28;20389;-74
2023/05/25 07:47:27;;;;;;;30.92;14.88;;;14.70;46.50;;;;;;5068713;28;20405;-76
2023/05/25 07:49:56;;;;;;;30.15;14.48;;;14.70;46.90;;;;;;5063569;28;20766;-74
2023/05/25 07:52:21;;;;;;;33.03;15.35;;;14.90;47.00;;;;;;5067586;28;20404;-73
2023/05/25 07:54:47;;;;;;;35.70;15.48;;;15.20;44.30;;;;;;5061827;28;20393;-74
2023/05/25 07:57:13;;;;;;;28.10;12.37;;;15.50;41.70;;;;;;5056712;28;20421;-76
2023/05/25 07:59:38;;;;;;;26.70;13.40;;;15.60;36.10;;;;;;5055672;28;20695;-74
2023/05/25 08:02:04;;;;;;;22.27;11.50;;;15.90;36.60;;;;;;5055740;28;20417;-75
2023/05/25 08:04:30;;;;;;;27.50;12.38;;;16.10;32.60;;;;;;5055623;28;20778;-76
2023/05/25 08:06:56;;;;;;;22.38;12.15;;;16.50;32.50;;;;;;5054356;28;20473;-75
2023/05/25 08:09:21;;;;;;;24.92;12.30;;;16.90;32.60;;;;;;5054077;28;20459;-74
2023/05/25 08:11:47;;;;;;;27.00;12.93;;;17.00;29.10;;;;;;5054356;28;20403;-75
2023/05/25 08:14:13;;;;;;;29.27;12.00;;;16.80;30.00;;;;;;5053542;28;20499;-75
2023/05/25 08:16:38;;;;;;;28.40;11.98;;;16.40;31.70;;;;;;5053755;28;20397;-75
2023/05/25 08:19:04;;;;;;;23.17;11.48;;;16.40;32.30;;;;;;5052606;28;20385;-75
2023/05/25 08:21:33;;;;;;;24.02;11.73;;;16.50;32.50;;;;;;5051388;28;20874;-74
2023/05/25 08:24:02;;;;;;;24.85;12.00;;;16.80;29.60;;;;;;5052029;28;20401;-74
2023/05/25 08:26:28;;;;;;;24.60;11.18;;;17.10;29.40;;;;;;5051942;28;20815;-75
2023/05/25 08:28:55;;;;;;;20.97;11.00;;;17.20;28.40;;;;;;5052211;28;20392;-75
2023/05/25 08:31:20;;;;;;;20.40;11.13;;;17.20;28.70;;;;;;5052461;28;20412;-75
2023/05/25 08:33:46;;;;;;;21.80;11.23;;;17.20;28.50;;;;;;5053016;28;20381;-75
2023/05/25 08:36:11;;;;;;;24.02;11.13;;;17.30;27.50;;;;;;5052914;28;20457;-74
2023/05/25 08:38:37;;;;;;;26.00;11.70;;;17.40;25.90;;;;;;5052833;28;20381;-75
2023/05/25 08:41:04;;;;;;;22.07;11.27;;;17.30;26.50;;;;;;5052236;28;20778;-74
2023/05/25 08:43:31;;;;;;;22.40;11.07;;;17.20;26.50;;;;;;5051522;28;20464;-75
2023/05/25 08:46:03;;;;;;;23.43;11.00;;;16.80;29.20;;;;;;5051772;28;20424;-75
2023/05/25 08:48:35;;;;;;;23.98;10.32;;;16.30;29.50;;;;;;5051430;28;20916;-75
2023/05/25 08:51:07;;;;;;;27.42;11.48;;;15.80;31.80;;;;;;5051552;28;20762;-74
2023/05/25 08:53:38;;;;;;;20.23;10.07;;;15.30;35.10;;;;;;5051245;28;20486;-75
2023/05/25 08:56:12;;;;;;;21.88;9.43;;;15.30;35.00;;;;;;5051551;28;20724;-75
2023/05/25 08:58:44;;;;;;;22.88;9.60;;;15.20;35.60;;;;;;5050216;28;20451;-75
2023/05/25 09:01:14;;;;;;;24.67;10.40;;;15.40;34.10;;;;;;5050969;28;20928;-75
2023/05/25 09:03:40;;;;;;;18.90;10.45;;;15.60;33.20;;;;;;5051167;28;20892;-75
2023/05/25 09:06:07;;;;;;;23.00;9.07;;;15.70;32.60;;;;;;5050686;28;22549;-74
2023/05/25 09:08:34;;;;;;;17.73;9.15;;;15.60;32.20;;;;;;5051001;28;20541;-75
2023/05/25 09:11:01;;;;;;;23.40;9.18;;;15.70;32.50;;;;;;5050831;28;20389;-75
2023/05/25 09:13:26;;;;;;;23.73;8.90;;;16.10;31.80;;;;;;5050983;28;20396;-74
2023/05/25 09:15:53;;;;;;;19.30;8.10;;;16.40;29.60;;;;;;5051208;28;20390;-74
2023/05/25 09:18:18;;;;;;;20.77;8.43;;;16.50;29.70;;;;;;5050526;28;20789;-74
2023/05/25 09:20:44;;;;;;;17.95;8.70;;;16.70;28.80;;;;;;5050667;28;20481;-74
2023/05/25 09:23:10;;;;;;;13.95;7.40;;;16.80;28.90;;;;;;5051207;28;20394;-74
2023/05/25 09:25:37;;;;;;;19.83;7.82;;;16.70;28.40;;;;;;5051100;28;20785;-72
2023/05/25 09:28:02;;;;;;;18.08;7.45;;;16.50;28.60;;;;;;5050930;28;20389;-75
2023/05/25 09:30:31;;;;;;;19.42;7.53;;;15.90;30.60;;;;;;5051025;28;20386;-74
2023/05/25 09:33:13;;;;;;;13.43;8.13;;;15.70;31.10;;;;;;5050848;28;20480;-75
2023/05/25 09:35:40;;;;;;;18.15;7.75;;;16.00;31.30;;;;;;5051292;28;20385;-74
2023/05/25 09:38:06;;;;;;;12.50;7.15;;;16.40;32.00;;;;;;5051842;28;20385;-75
2023/05/25 09:40:33;;;;;;;15.90;7.72;;;16.80;27.00;;;;;;5051507;28;20389;-74
2023/05/25 09:42:59;;;;;;;15.18;7.20;;;17.20;27.20;;;;;;5050948;28;20818;-74
2023/05/25 09:45:25;;;;;;;19.13;8.00;;;17.80;23.80;;;;;;5051473;28;20385;-74
2023/05/25 09:47:58;;;;;;;16.17;7.68;;;17.90;21.60;;;;;;5050778;28;20377;-75
2023/05/25 09:50:27;;;;;;;15.43;7.90;;;17.50;24.70;;;;;;5050855;28;20406;-74
2023/05/25 09:52:57;;;;;;;16.02;7.90;;;17.30;25.50;;;;;;5051877;28;20381;-75
2023/05/25 09:55:22;;;;;;;17.38;7.97;;;16.90;25.20;;;;;;5051368;28;20892;-74
2023/05/25 09:57:53;;;;;;;16.00;7.87;;;16.40;26.30;;;;;;5051388;28;20480;-75
2023/05/25 10:00:20;;;;;;;16.25;7.15;;;16.20;27.40;;;;;;5050741;28;20442;-74
2023/05/25 10:02:45;;;;;;;13.05;6.75;;;16.30;29.00;;;;;;5049893;28;20405;-74
2023/05/25 10:05:11;;;;;;;16.90;6.80;;;16.70;28.00;;;;;;5054582;28;20386;-74
2023/05/25 10:07:39;;;;;;;15.20;7.22;;;17.10;26.60;;;;;;5054970;28;20385;-73
2023/05/25 10:10:09;;;;;;;16.17;9.03;;;17.20;25.40;;;;;;5050823;28;20378;-74
2023/05/25 10:12:35;;;;;;;11.18;7.70;;;17.30;25.00;;;;;;5049612;28;20408;-74
2023/05/25 10:15:03;;;;;;;15.75;8.10;;;17.50;25.00;;;;;;5050946;28;20384;-75
2023/05/25 10:17:31;;;;;;;13.90;7.88;;;17.80;23.10;;;;;;5050511;28;20396;-74
2023/05/25 10:19:59;;;;;;;14.25;8.20;;;17.40;23.60;;;;;;5050281;28;20468;-74
2023/05/25 10:22:29;;;;;;;17.15;9.20;;;17.10;23.90;;;;;;5048700;28;20917;-74
2023/05/25 10:25:46;;;;;;;16.20;9.40;;;17.20;24.10;;;;;;5049872;28;20409;-74
2023/05/25 10:28:21;;;;;;;15.05;8.60;;;17.60;23.70;;;;;;5027241;28;20447;-76
2023/05/25 10:30:48;;;;;;;14.75;9.00;;;18.50;21.70;;;;;;5054556;28;20704;-75
2023/05/25 10:33:14;;;;;;;15.48;9.88;;;18.80;20.10;;;;;;5053926;28;20384;-73
2023/05/25 10:35:41;;;;;;;16.45;9.10;;;18.20;21.50;;;;;;5052956;28;20381;-74
2023/05/25 10:38:08;;;;;;;13.73;8.05;;;17.70;21.90;;;;;;5054787;28;20413;-75
2023/05/25 10:40:36;;;;;;;19.13;9.65;;;17.10;24.40;;;;;;5054704;28;20435;-75
2023/05/25 10:43:03;;;;;;;17.00;9.48;;;17.30;25.80;;;;;;5054998;28;20397;-75
2023/05/25 10:45:29;;;;;;;16.52;8.98;;;17.60;24.80;;;;;;5054742;28;20881;-75
2023/05/25 10:47:55;;;;;;;15.83;8.53;;;17.50;23.50;;;;;;5054422;28;20381;-76
2023/05/25 10:50:28;;;;;;;17.53;9.40;;;17.20;25.00;;;;;;5054695;28;20380;-75
2023/05/25 10:53:15;;;;;;;12.68;7.97;;;16.80;26.40;;;;;;5054298;28;20454;-75
2023/05/25 10:56:02;;;;;;;14.30;8.20;;;16.60;27.10;;;;;;5055388;28;20440;-75
2023/05/25 10:58:29;;;;;;;11.57;7.93;;;16.70;28.00;;;;;;5055151;28;20409;-75
2023/05/25 11:01:05;;;;;;;14.85;8.80;;;16.90;27.10;;;;;;5054078;28;20385;-74
2023/05/25 11:03:43;;;;;;;16.42;7.40;;;16.90;25.70;;;;;;5056676;28;20389;-74
2023/05/25 11:06:20;;;;;;;9.90;6.97;;;17.00;25.40;;;;;;5057124;28;20476;-74
2023/05/25 11:09:00;;;;;;;12.63;6.70;;;17.10;24.30;;;;;;5054443;28;20497;-75
2023/05/25 11:11:41;;;;;;;14.93;7.60;;;17.50;24.90;;;;;;5053358;28;20443;-75
2023/05/25 11:14:30;;;;;;;14.85;7.80;;;17.90;22.80;;;;;;5053397;28;20394;-74
2023/05/25 11:17:16;;;;;;;13.45;7.18;;;17.50;22.90;;;;;;5043755;28;20503;-74
2023/05/25 11:19:50;;;;;;;15.25;7.72;;;17.00;24.90;;;;;;5053008;28;20385;-74
2023/05/25 11:22:22;;;;;;;17.23;8.95;;;16.80;27.70;;;;;;5053198;28;20505;-74
2023/05/25 11:24:51;;;;;;;14.30;9.20;;;17.00;26.20;;;;;;5053195;28;20385;-76
2023/05/25 11:27:24;;;;;;;15.02;9.13;;;16.80;25.60;;;;;;5054539;28;20386;-74
2023/05/25 11:29:51;;;;;;;15.50;7.88;;;16.90;28.30;;;;;;5054425;28;20464;-75
2023/05/25 11:32:16;;;;;;;15.15;9.52;;;17.10;26.80;;;;;;5053046;28;20405;-75
2023/05/25 11:34:48;;;;;;;11.77;7.87;;;17.60;24.00;;;;;;5052729;28;20390;-74
2023/05/25 11:37:21;;;;;;;17.50;9.30;;;17.70;22.70;;;;;;5052805;28;20397;-74
2023/05/25 11:39:51;;;;;;;16.25;7.90;;;17.60;23.60;;;;;;5053189;28;20381;-74
2023/05/25 11:42:21;;;;;;;15.63;7.67;;;17.80;22.80;;;;;;5061356;28;20496;-73
2023/05/25 11:44:47;;;;;;;13.93;6.93;;;18.10;22.60;;;;;;5065673;28;20381;-74
2023/05/25 11:47:17;;;;;;;15.73;7.30;;;18.70;21.70;;;;;;5055050;28;20396;-75
2023/05/25 11:49:46;;;;;;;12.73;7.40;;;18.40;20.40;;;;;;5053456;28;20477;-74
2023/05/25 11:52:15;;;;;;;18.23;7.32;;;18.10;21.30;;;;;;5053228;28;20394;-74
2023/05/25 11:54:41;;;;;;;12.35;7.72;;;18.20;21.90;;;;;;5054402;28;20463;-74
2023/05/25 11:57:14;;;;;;;11.10;6.80;;;18.20;21.10;;;;;;5053171;28;20417;-74
2023/05/25 11:59:49;;;;;;;14.53;6.30;;;18.40;20.50;;;;;;5051995;28;20500;-74
2023/05/25 12:02:16;;;;;;;13.75;7.70;;;18.50;20.70;;;;;;5053083;28;20408;-74
2023/05/25 12:04:51;;;;;;;13.68;7.00;;;18.00;20.00;;;;;;5051348;28;20836;-74
2023/05/25 12:07:17;;;;;;;11.70;7.43;;;17.60;22.50;;;;;;5052633;28;20469;-75
2023/05/25 12:09:42;;;;;;;15.45;8.68;;;17.80;23.50;;;;;;5049449;28;20446;-75
2023/05/25 12:12:08;;;;;;;16.70;11.10;;;18.10;22.90;;;;;;5032754;28;20943;-76
2023/05/25 12:14:40;;;;;;;13.07;9.80;;;18.00;21.30;;;;;;5032448;28;20872;-72
2023/05/25 12:17:05;;;;;;;15.45;8.95;;;18.20;20.80;;;;;;5032488;28;20756;-73
2023/05/25 12:19:31;;;;;;;17.83;8.18;;;18.60;21.10;;;;;;5032514;28;20379;-74
2023/05/25 12:21:57;;;;;;;18.10;7.40;;;19.40;19.50;;;;;;5038150;28;20476;-74
2023/05/25 12:24:22;;;;;;;19.17;8.00;;;19.70;18.70;;;;;;5052067;28;20490;-75
2023/05/25 12:26:49;;;;;;;15.03;7.33;;;20.20;18.30;;;;;;5051953;28;20389;-75
2023/05/25 12:29:15;;;;;;;14.73;7.28;;;20.90;16.70;;;;;;5052152;28;20814;-74
2023/05/25 12:31:41;;;;;;;12.80;7.10;;;21.60;14.80;;;;;;5051769;28;20543;-75
2023/05/25 12:34:13;;;;;;;12.77;7.17;;;21.70;14.00;;;;;;5051856;28;20464;-74